»·PEaware :: XACAM KLAX-KSNA

XACAM :: KLAX-KSNA

FLIGHT INFORMATION

Flight Status: Arrived
Operator: Unknown
More flights by this operator :: More flights under this callsign
Pilot: Rafael C. (24230)
Aircraft: BEECH AIRCRAFT DEBONAIR BONANZA
(BE33)
More flights by this aircraft type
Origin: KLAX Los Angeles Intl
United States
Destination: KSNA John Wayne-Orange Co
United States
More flights between these airports :: More routes between these airports
Route: SLI8 SLI
File this flight plan on PilotEdge
Remarks: I6 Rating
Altitude:
(Current/Filed)
4,000ft
Speed:
(Current/Filed)
140kts
Departed: 24-Jul-19 03:15 PM
Arrived: 24-Jul-19 04:00 PM
Distance/Time
Traveled:
31nm/0:44
Distance/Time
To Go:
Arrived

Flight Plot

Page will automatically refresh every two minutes.

Flight plan parsing failed; only flown route is shown


Map Options




Map Legend


Flown Route
Filed Route
Departure Airport
Arrival Airport
Navaid (VOR, NDB)
Fix

Horizontal Profiles

Position Reports

Time Latitude Longitude Heading Altitude Ground
Speed
24-Jul-19 15:01 33.933673 -118.399070 174 110ft 0kts
24-Jul-19 15:01 33.933673 -118.399070 174 110ft 0kts
24-Jul-19 15:02 33.933673 -118.399070 174 110ft 0kts
24-Jul-19 15:03 33.933673 -118.399070 174 110ft 0kts
24-Jul-19 15:04 33.933673 -118.399070 174 110ft 0kts
24-Jul-19 15:05 33.933673 -118.399070 174 110ft 0kts
24-Jul-19 15:06 33.933673 -118.399070 174 110ft 0kts
24-Jul-19 15:07 33.933673 -118.399070 174 110ft 0kts
24-Jul-19 15:08 33.933673 -118.399070 174 110ft 0kts
24-Jul-19 15:09 33.933900 -118.398145 45 108ft 12kts
24-Jul-19 15:10 33.935007 -118.393630 84 103ft 29kts
24-Jul-19 15:11 33.935760 -118.386344 84 99ft 26kts
24-Jul-19 15:12 33.936537 -118.382762 353 95ft 0kts
24-Jul-19 15:13 33.936867 -118.382819 352 95ft 7kts
24-Jul-19 15:14 33.936465 -118.391620 259 124ft 82kts
24-Jul-19 15:15 33.932246 -118.427661 260 1268ft 105kts
24-Jul-19 15:16 33.909674 -118.460496 213 2875ft 104kts
24-Jul-19 15:17 33.885491 -118.478712 213 3973ft 108kts
24-Jul-19 15:18 33.855088 -118.498810 185 4015ft 136kts
24-Jul-19 15:19 33.816514 -118.499315 183 4004ft 138kts
24-Jul-19 15:20 33.777784 -118.498880 183 4005ft 140kts
24-Jul-19 15:21 33.738463 -118.498080 183 4013ft 141kts
24-Jul-19 15:22 33.706392 -118.473753 133 4032ft 149kts
24-Jul-19 15:23 33.679876 -118.435379 133 4044ft 148kts
24-Jul-19 15:24 33.653685 -118.397591 133 4058ft 146kts
24-Jul-19 15:25 33.651672 -118.354937 59 4066ft 153kts
24-Jul-19 15:26 33.672415 -118.309970 63 4049ft 154kts
24-Jul-19 15:27 33.692398 -118.264166 63 4029ft 155kts
24-Jul-19 15:28 33.712369 -118.218294 64 4013ft 154kts
24-Jul-19 15:29 33.732290 -118.172480 64 4001ft 154kts
24-Jul-19 15:30 33.751926 -118.127254 64 3994ft 154kts
24-Jul-19 15:31 33.771004 -118.083325 64 3990ft 153kts
24-Jul-19 15:32 33.789447 -118.039741 66 3988ft 152kts
24-Jul-19 15:33 33.806892 -117.996304 66 3987ft 152kts
24-Jul-19 15:34 33.824469 -117.952610 66 3986ft 152kts
24-Jul-19 15:35 33.842295 -117.908239 66 3984ft 152kts
24-Jul-19 15:36 33.860267 -117.863441 66 3982ft 152kts
24-Jul-19 15:37 33.878562 -117.817780 66 3980ft 152kts
24-Jul-19 15:38 33.896940 -117.771828 65 3980ft 153kts
24-Jul-19 15:39 33.915503 -117.725337 65 3981ft 154kts
24-Jul-19 15:40 33.924192 -117.680522 23 3995ft 153kts
24-Jul-19 15:41 33.963487 -117.674518 304 3925ft 144kts
24-Jul-19 15:42 33.946467 -117.699047 201 3485ft 107kts
24-Jul-19 15:43 33.918150 -117.714707 208 3489ft 123kts
24-Jul-19 15:44 33.901557 -117.742684 313 3483ft 136kts
24-Jul-19 15:45 33.938940 -117.734576 21 3484ft 148kts
24-Jul-19 15:46 33.976652 -117.714401 16 3489ft 148kts
24-Jul-19 15:47 33.991037 -117.690053 174 3495ft 130kts
24-Jul-19 15:48 33.955467 -117.694118 202 3494ft 130kts
24-Jul-19 15:49 33.922421 -117.711985 206 3484ft 130kts
24-Jul-19 15:50 33.889596 -117.732783 208 3385ft 134kts
24-Jul-19 15:51 33.857182 -117.753419 208 3384ft 131kts
24-Jul-19 15:52 33.825350 -117.773815 208 3200ft 121kts
24-Jul-19 15:53 33.798949 -117.790442 208 2676ft 99kts
24-Jul-19 15:54 33.774332 -117.806154 209 2150ft 103kts
24-Jul-19 15:55 33.749196 -117.822176 209 1591ft 104kts
24-Jul-19 15:56 33.725419 -117.837183 208 1054ft 79kts
24-Jul-19 15:57 33.706029 -117.849504 209 650ft 79kts
24-Jul-19 15:58 33.687338 -117.861402 211 234ft 74kts
24-Jul-19 15:59 33.672875 -117.870618 207 60ft 22kts
24-Jul-19 16:00 33.669370 -117.871891 141 60ft 0kts
24-Jul-19 16:01 33.669893 -117.870133 43 60ft 15kts
24-Jul-19 16:02 33.670793 -117.868210 29 60ft 0kts
24-Jul-19 16:03 33.670793 -117.868210 29 60ft 0kts
24-Jul-19 16:04 33.670793 -117.868210 29 60ft 0kts

Navigation Log

Ident Type
Flight plan parsing failed, navigation log unavailable